Time;durP1;ratioP1;P1;durP2;ratioP2;P2;SDS_P1;SDS_P2;PMS_P1;PMS_P2;Temp;Humidity;BMP_temperature;BMP_pressure;BME280_temperature;BME280_humidity;BME280_pressure;Samples;Min_cycle;Max_cycle;Signal;HPM_P1;HPM_P2
2023/04/07 00:00:37;;;;;;;103.68;30.45;;;;;;;6.96;100.00;101423.88;4974097;28;20019;-78
2023/04/07 00:03:05;;;;;;;94.90;29.13;;;;;;;6.96;100.00;101429.06;4974737;28;20058;-77
2023/04/07 00:05:31;;;;;;;110.63;31.55;;;;;;;6.96;100.00;101431.66;4973782;28;20046;-78
2023/04/07 00:07:56;;;;;;;95.05;29.42;;;;;;;6.97;100.00;101426.50;4974884;28;20523;-78
2023/04/07 00:10:21;;;;;;;94.07;27.67;;;;;;;6.96;100.00;101429.94;4974434;28;20855;-77
2023/04/07 00:12:46;;;;;;;96.32;30.63;;;;;;;6.97;100.00;101433.41;4974203;28;20030;-77
2023/04/07 00:15:12;;;;;;;98.15;30.88;;;;;;;6.92;100.00;101423.03;4974374;28;20030;-77
2023/04/07 00:17:37;;;;;;;101.72;31.95;;;;;;;6.89;100.00;101422.16;4974702;28;20463;-78
2023/04/07 00:20:03;;;;;;;104.22;32.83;;;;;;;6.90;100.00;101422.19;4973561;28;20022;-77
2023/04/07 00:22:28;;;;;;;94.63;31.65;;;;;;;6.92;100.00;101432.53;4974550;28;20022;-78
2023/04/07 00:24:53;;;;;;;91.35;30.08;;;;;;;6.90;100.00;101439.44;4974724;28;20360;-77
2023/04/07 00:27:19;;;;;;;106.90;31.95;;;;;;;6.89;100.00;101442.91;4972631;28;20035;-77
2023/04/07 00:29:45;;;;;;;95.97;30.60;;;;;;;6.88;100.00;101441.19;4972811;28;20034;-78
2023/04/07 00:32:11;;;;;;;95.03;29.52;;;;;;;6.89;100.00;101438.56;4973036;28;20491;-77
2023/04/07 00:34:36;;;;;;;91.20;30.65;;;;;;;6.90;100.00;101439.44;4973628;28;20082;-77
2023/04/07 00:37:01;;;;;;;90.32;30.33;;;;;;;6.89;100.00;101437.72;4972675;28;20035;-77
2023/04/07 00:39:26;;;;;;;96.20;30.50;;;;;;;6.84;100.00;101432.53;4973976;28;20090;-77
2023/04/07 00:41:52;;;;;;;88.43;30.38;;;;;;;6.85;100.00;101434.25;4972599;28;20390;-77
2023/04/07 00:44:17;;;;;;;95.60;29.50;;;;;;;6.85;100.00;101433.41;4973878;28;20030;-77
2023/04/07 00:46:43;;;;;;;86.78;30.65;;;;;;;6.82;100.00;101430.78;4973838;28;20101;-78
2023/04/07 00:49:08;;;;;;;88.75;28.67;;;;;;;6.76;100.00;101421.28;4972562;28;20035;-77
2023/04/07 00:51:33;;;;;;;98.65;30.05;;;;;;;6.72;100.00;101423.00;4973877;28;20031;-78
2023/04/07 00:54:00;;;;;;;84.88;29.00;;;;;;;6.72;100.00;101427.31;4974046;28;20033;-77
2023/04/07 00:56:26;;;;;;;86.90;29.73;;;;;;;6.68;100.00;101438.56;4972877;28;20039;-78
2023/04/07 00:58:52;;;;;;;103.95;30.70;;;;;;;6.69;100.00;101435.09;4973895;28;20029;-78
2023/04/07 01:01:27;;;;;;;90.30;29.02;;;;;;;6.67;100.00;101437.69;4973499;28;20030;-78
2023/04/07 01:04:27;;;;;;;92.22;28.83;;;;;;;6.72;100.00;101432.50;4972734;28;20505;-77
2023/04/07 01:06:56;;;;;;;103.85;30.70;;;;;;;6.76;100.00;101431.66;4973780;28;20486;-78
2023/04/07 01:09:43;;;;;;;99.10;29.65;;;;;;;6.80;100.00;101444.63;4972804;28;20018;-77
2023/04/07 01:12:16;;;;;;;90.90;30.58;;;;;;;6.80;100.00;101439.44;4973401;28;20042;-77
2023/04/07 01:14:49;;;;;;;98.80;31.27;;;;;;;6.80;100.00;101438.56;4973965;28;20035;-78
2023/04/07 01:17:16;;;;;;;87.73;30.80;;;;;;;6.77;100.00;101436.84;4972885;28;20026;-78
2023/04/07 01:20:04;;;;;;;97.35;30.95;;;;;;;6.81;100.00;101445.50;4973793;28;20414;-78
2023/04/07 01:22:39;;;;;;;100.78;30.20;;;;;;;6.79;100.00;101440.28;4973630;28;20089;-78
2023/04/07 01:25:16;;;;;;;97.05;32.03;;;;;;;6.80;100.00;101441.16;4972826;28;20102;-78
2023/04/07 01:27:52;;;;;;;95.18;31.05;;;;;;;6.74;100.00;101436.84;4973378;28;20546;-78
2023/04/07 01:30:19;;;;;;;89.50;31.00;;;;;;;6.72;100.00;101442.88;4972514;28;20500;-78
2023/04/07 01:32:49;;;;;;;86.45;31.92;;;;;;;6.68;100.00;101449.78;4973365;28;20471;-78
2023/04/07 01:35:15;;;;;;;91.20;31.60;;;;;;;6.67;100.00;101441.97;4973156;28;20038;-78
2023/04/07 01:37:42;;;;;;;87.97;32.00;;;;;;;6.70;100.00;101447.19;4972793;28;20035;-78
2023/04/07 01:40:08;;;;;;;88.25;30.17;;;;;;;6.65;100.00;101439.41;4972107;28;20027;-78
2023/04/07 01:42:35;;;;;;;84.63;30.83;;;;;;;6.67;100.00;101450.66;4972688;28;20094;-78
2023/04/07 01:45:01;;;;;;;81.20;27.92;;;;;;;6.64;100.00;101454.94;4972698;28;20027;-77
2023/04/07 01:47:31;;;;;;;73.85;27.25;;;;;;;6.65;100.00;101447.19;4976743;28;20034;-78
2023/04/07 01:49:58;;;;;;;73.40;25.77;;;;;;;6.60;100.00;101455.78;4977019;28;20030;-78
2023/04/07 01:52:25;;;;;;;59.92;23.70;;;;;;;6.63;100.00;101460.97;4975316;28;20066;-78
2023/04/07 01:54:52;;;;;;;53.67;21.58;;;;;;;6.59;100.00;101462.72;4973113;28;20516;-78
2023/04/07 01:57:18;;;;;;;53.65;21.27;;;;;;;6.55;100.00;101461.84;4975545;28;20493;-78
2023/04/07 01:59:43;;;;;;;54.15;21.23;;;;;;;6.47;100.00;101453.16;4975891;28;20046;-78
2023/04/07 02:02:08;;;;;;;51.15;20.73;;;;;;;6.56;100.00;101467.88;4975738;28;20035;-78
2023/04/07 02:04:47;;;;;;;47.22;19.00;;;;;;;6.54;100.00;101475.66;4976783;28;20505;-78
2023/04/07 02:07:19;;;;;;;50.03;18.77;;;;;;;6.51;100.00;101467.00;4976126;28;20019;-78
2023/04/07 02:09:47;;;;;;;47.92;19.27;;;;;;;6.53;100.00;101473.03;4977160;28;20423;-78
2023/04/07 02:12:14;;;;;;;48.67;20.15;;;;;;;6.52;100.00;101469.59;4975558;28;20391;-78
2023/04/07 02:14:41;;;;;;;45.63;19.55;;;;;;;6.50;100.00;101466.13;4976956;28;20031;-78
2023/04/07 02:17:06;;;;;;;50.60;19.63;;;;;;;6.50;100.00;101468.72;4976618;28;20027;-78
2023/04/07 02:19:34;;;;;;;56.90;20.42;;;;;;;6.47;100.00;101465.25;4976241;28;20475;-78
2023/04/07 02:22:01;;;;;;;46.30;21.17;;;;;;;6.49;100.00;101469.59;4976713;28;20034;-78
2023/04/07 02:24:27;;;;;;;51.08;21.17;;;;;;;6.48;100.00;101465.28;4976619;28;20025;-78
2023/04/07 02:26:52;;;;;;;51.03;20.88;;;;;;;6.47;100.00;101466.09;4976089;28;20018;-77
2023/04/07 02:29:17;;;;;;;48.70;19.35;;;;;;;6.47;100.00;101466.09;4975811;28;20199;-77
2023/04/07 02:31:43;;;;;;;52.47;20.98;;;;;;;6.47;100.00;101466.09;4976714;28;20046;-78
2023/04/07 02:34:08;;;;;;;45.95;19.85;;;;;;;6.46;100.00;101459.22;4975486;28;20499;-77
2023/04/07 02:36:33;;;;;;;46.63;19.73;;;;;;;6.42;100.00;101454.03;4976768;28;20522;-78
2023/04/07 02:38:58;;;;;;;51.53;20.65;;;;;;;6.42;100.00;101454.88;4976226;28;20030;-78
2023/04/07 02:41:25;;;;;;;50.05;21.73;;;;;;;6.38;100.00;101454.88;4974721;28;20027;-78
2023/04/07 02:43:50;;;;;;;53.58;22.52;;;;;;;6.38;100.00;101460.94;4975572;28;20030;-77
2023/04/07 02:46:15;;;;;;;57.60;22.00;;;;;;;6.39;100.00;101466.97;4975966;28;20073;-77
2023/04/07 02:48:40;;;;;;;59.17;23.20;;;;;;;6.45;100.00;101467.00;4974085;28;20117;-78
2023/04/07 02:51:06;;;;;;;54.63;23.23;;;;;;;6.42;100.00;101465.25;4974792;28;20097;-77
2023/04/07 02:53:31;;;;;;;58.85;24.40;;;;;;;6.44;100.00;101466.13;4975087;28;20078;-78
2023/04/07 02:55:56;;;;;;;57.15;24.17;;;;;;;6.46;100.00;101471.31;4973585;28;20085;-78
2023/04/07 02:58:22;;;;;;;58.25;24.42;;;;;;;6.44;100.00;101460.06;4975380;28;20494;-77
2023/04/07 03:00:48;;;;;;;56.90;22.52;;;;;;;6.40;100.00;101466.94;4975161;28;20031;-78
2023/04/07 03:03:13;;;;;;;45.25;21.17;;;;;;;6.40;100.00;101461.78;4974040;28;20023;-77
2023/04/07 03:05:38;;;;;;;49.65;21.70;;;;;;;6.40;100.00;101468.69;4974409;28;20522;-77
2023/04/07 03:08:04;;;;;;;52.25;20.65;;;;;;;6.45;100.00;101474.75;4975667;28;20035;-78
2023/04/07 03:10:29;;;;;;;54.83;20.65;;;;;;;6.42;100.00;101467.84;4974874;28;20062;-77
2023/04/07 03:12:56;;;;;;;45.55;19.45;;;;;;;6.41;100.00;101475.59;4975179;28;20031;-77
2023/04/07 03:15:21;;;;;;;50.30;19.85;;;;;;;6.41;100.00;101473.00;4974215;28;20031;-77
2023/04/07 03:17:47;;;;;;;47.70;19.42;;;;;;;6.46;100.00;101479.94;4973878;28;20106;-77
2023/04/07 03:20:12;;;;;;;56.53;19.15;;;;;;;6.46;100.00;101473.88;4974902;28;20110;-77
2023/04/07 03:22:37;;;;;;;50.83;18.88;;;;;;;6.42;100.00;101473.00;4974268;28;20387;-77
2023/04/07 03:25:04;;;;;;;44.53;18.70;;;;;;;6.44;100.00;101475.59;4973326;28;20023;-77
2023/04/07 03:27:29;;;;;;;43.22;18.20;;;;;;;6.37;100.00;101466.09;4974968;28;20101;-77
2023/04/07 03:29:55;;;;;;;44.10;18.45;;;;;;;6.37;100.00;101472.13;4974193;28;20110;-77
2023/04/07 03:32:20;;;;;;;47.08;18.67;;;;;;;6.37;100.00;101473.84;4974711;28;20046;-77
2023/04/07 03:34:45;;;;;;;46.53;17.95;;;;;;;6.35;100.00;101470.41;4973091;28;20038;-77
2023/04/07 03:37:10;;;;;;;44.42;19.00;;;;;;;6.32;100.00;101473.84;4973661;28;20042;-77
2023/04/07 03:39:36;;;;;;;41.30;17.25;;;;;;;6.31;100.00;101464.31;4973038;28;20535;-77
2023/04/07 03:42:02;;;;;;;51.97;18.73;;;;;;;6.24;100.00;101462.56;4974410;28;20038;-77
2023/04/07 03:44:27;;;;;;;47.17;17.88;;;;;;;6.25;100.00;101460.00;4973060;28;20023;-77
2023/04/07 03:46:52;;;;;;;44.40;18.30;;;;;;;6.26;100.00;101461.72;4974305;28;20023;-77
2023/04/07 03:49:17;;;;;;;50.05;19.15;;;;;;;6.29;100.00;101468.66;4974937;28;20022;-77
2023/04/07 03:51:43;;;;;;;51.72;20.77;;;;;;;6.27;100.00;101471.22;4974238;28;20030;-77
2023/04/07 03:54:09;;;;;;;61.15;19.67;;;;;;;6.30;100.00;101470.38;4974226;28;20030;-77
2023/04/07 03:56:34;;;;;;;53.25;21.00;;;;;;;6.25;100.00;101469.50;4975178;28;20023;-77
2023/04/07 03:59:00;;;;;;;58.33;20.88;;;;;;;6.25;100.00;101479.84;4974273;28;20033;-77
2023/04/07 04:01:25;;;;;;;53.38;21.05;;;;;;;6.25;100.00;101469.50;4974534;28;20550;-77
2023/04/07 04:03:50;;;;;;;56.13;20.38;;;;;;;6.24;100.00;101476.38;4974600;28;20046;-77
2023/04/07 04:06:16;;;;;;;58.58;20.70;;;;;;;6.20;100.00;101469.47;4973861;28;20018;-77
2023/04/07 04:08:41;;;;;;;56.58;21.20;;;;;;;6.22;100.00;101472.06;4974023;28;20463;-77
2023/04/07 04:11:06;;;;;;;58.22;21.65;;;;;;;6.14;100.00;101466.84;4974487;28;20086;-77
2023/04/07 04:13:31;;;;;;;60.28;22.15;;;;;;;6.22;100.00;101478.13;4973765;28;20046;-77
2023/04/07 04:15:57;;;;;;;60.17;22.17;;;;;;;6.21;100.00;101478.09;4974788;28;20567;-77
2023/04/07 04:18:22;;;;;;;55.22;21.00;;;;;;;6.19;100.00;101475.50;4974475;28;20058;-77
2023/04/07 04:20:48;;;;;;;55.55;20.90;;;;;;;6.17;100.00;101471.19;4973918;28;20047;-77
2023/04/07 04:23:14;;;;;;;61.03;19.58;;;;;;;6.13;100.00;101474.63;4974130;28;20130;-77
2023/04/07 04:25:40;;;;;;;54.55;18.95;;;;;;;6.13;100.00;101482.38;4974351;28;20030;-77
2023/04/07 04:28:06;;;;;;;57.50;18.90;;;;;;;6.06;100.00;101473.72;4973213;28;20019;-77
2023/04/07 04:30:31;;;;;;;57.88;18.70;;;;;;;6.01;100.00;101478.00;4974393;28;20018;-77
2023/04/07 04:32:56;;;;;;;51.08;18.15;;;;;;;5.93;100.00;101472.78;4973683;28;20022;-77
2023/04/07 04:35:22;;;;;;;48.40;17.75;;;;;;;5.91;100.00;101473.59;4974131;28;20035;-77
2023/04/07 04:37:47;;;;;;;53.33;18.25;;;;;;;5.96;100.00;101477.97;4974189;28;20055;-77
2023/04/07 04:40:13;;;;;;;55.60;17.67;;;;;;;5.99;100.00;101493.53;4973187;28;20034;-77
2023/04/07 04:42:38;;;;;;;54.65;18.58;;;;;;;6.02;100.00;101493.56;4973886;28;20502;-77
2023/04/07 04:45:04;;;;;;;58.85;18.58;;;;;;;6.04;100.00;101490.97;4973844;28;20038;-77
2023/04/07 04:47:30;;;;;;;50.53;19.15;;;;;;;6.05;100.00;101500.47;4972700;28;20081;-77
2023/04/07 04:49:55;;;;;;;49.67;17.63;;;;;;;6.03;100.00;101502.19;4972682;28;20030;-77
2023/04/07 04:52:21;;;;;;;51.90;17.85;;;;;;;6.02;100.00;101500.44;4971862;28;20074;-77
2023/04/07 04:54:49;;;;;;;46.47;16.98;;;;;;;6.03;100.00;101508.22;4973540;28;20443;-77
2023/04/07 04:57:15;;;;;;;51.50;18.38;;;;;;;6.03;100.00;101504.75;4973360;28;20030;-77
2023/04/07 04:59:41;;;;;;;54.13;18.02;;;;;;;6.00;100.00;101518.53;4973654;28;20027;-77
2023/04/07 05:02:06;;;;;;;51.13;18.65;;;;;;;6.01;100.00;101519.41;4972570;28;20505;-77
2023/04/07 05:04:31;;;;;;;57.88;19.40;;;;;;;6.01;100.00;101516.81;4973567;28;20046;-77
2023/04/07 05:06:57;;;;;;;50.85;18.75;;;;;;;6.00;100.00;101523.72;4973557;28;20203;-77
2023/04/07 05:09:22;;;;;;;53.28;17.60;;;;;;;6.02;100.00;101528.94;4972742;28;20033;-77
2023/04/07 05:11:47;;;;;;;57.10;18.60;;;;;;;6.02;100.00;101516.00;4973618;28;20027;-77
2023/04/07 05:14:13;;;;;;;53.03;19.70;;;;;;;5.89;100.00;101503.78;4973397;28;20464;-77
2023/04/07 05:16:38;;;;;;;55.60;19.48;;;;;;;6.01;100.00;101522.00;4973097;28;20035;-77
2023/04/07 05:19:03;;;;;;;48.78;19.25;;;;;;;6.02;100.00;101531.50;4972855;28;20352;-77
2023/04/07 05:21:29;;;;;;;55.17;19.25;;;;;;;5.99;100.00;101531.50;4973763;28;20033;-77
2023/04/07 05:23:55;;;;;;;54.47;19.60;;;;;;;6.01;100.00;101534.94;4972674;28;20139;-77
2023/04/07 05:26:20;;;;;;;55.42;20.00;;;;;;;5.96;100.00;101534.06;4973160;28;20055;-77
2023/04/07 05:28:45;;;;;;;59.63;20.15;;;;;;;6.04;100.00;101542.72;4973631;28;20027;-77
2023/04/07 05:31:11;;;;;;;59.70;20.10;;;;;;;5.99;100.00;101542.72;4972378;28;20019;-77
2023/04/07 05:33:36;;;;;;;56.88;21.10;;;;;;;5.99;100.00;101541.84;4973577;28;20069;-77
2023/04/07 05:36:01;;;;;;;65.50;20.60;;;;;;;6.01;100.00;101547.88;4973474;28;20022;-77
2023/04/07 05:38:27;;;;;;;56.13;19.95;;;;;;;6.01;100.00;101548.75;4972579;28;20019;-77
2023/04/07 05:40:55;;;;;;;61.42;22.17;;;;;;;6.02;100.00;101558.25;4973216;28;20019;-77
2023/04/07 05:43:20;;;;;;;67.00;23.73;;;;;;;6.03;100.00;101553.94;4972655;28;20019;-77
2023/04/07 05:45:46;;;;;;;71.50;24.67;;;;;;;6.03;100.00;101547.03;4970860;28;20097;-77
2023/04/07 05:48:11;;;;;;;71.78;24.90;;;;;;;6.01;100.00;101548.75;4973427;28;20038;-77
2023/04/07 05:50:37;;;;;;;65.60;23.05;;;;;;;6.04;100.00;101542.72;4972638;28;20022;-77
2023/04/07 05:53:02;;;;;;;58.17;23.02;;;;;;;5.94;100.00;101536.63;4973148;28;20094;-77
2023/04/07 05:55:27;;;;;;;69.90;24.73;;;;;;;6.04;100.00;101550.50;4973227;28;20023;-77
2023/04/07 05:57:53;;;;;;;63.40;24.60;;;;;;;6.04;100.00;101559.13;4972422;28;20039;-76
2023/04/07 06:00:19;;;;;;;60.30;25.55;;;;;;;6.00;100.00;101546.16;4973335;28;20507;-76
2023/04/07 06:02:44;;;;;;;69.50;25.63;;;;;;;6.05;100.00;101552.25;4973353;28;20053;-77
2023/04/07 06:05:10;;;;;;;77.43;28.65;;;;;;;6.05;100.00;101554.84;4971945;28;20050;-77
2023/04/07 06:07:35;;;;;;;81.18;26.27;;;;;;;6.10;100.00;101561.75;4973567;28;20026;-77
2023/04/07 06:10:00;;;;;;;67.38;26.80;;;;;;;6.16;100.00;101560.06;4972894;28;20379;-76
2023/04/07 06:12:25;;;;;;;80.95;27.55;;;;;;;6.23;100.00;101569.59;4972045;28;20050;-77
2023/04/07 06:14:55;;;;;;;77.45;28.58;;;;;;;6.31;100.00;101562.72;4973213;28;20155;-77
2023/04/07 06:17:21;;;;;;;70.43;27.83;;;;;;;6.38;100.00;101574.88;4973075;28;20030;-77
2023/04/07 06:19:47;;;;;;;70.10;28.73;;;;;;;6.35;100.00;101568.81;4972060;28;20038;-77
2023/04/07 06:22:12;;;;;;;69.78;28.20;;;;;;;6.32;100.00;101565.34;4972161;28;20031;-77
2023/04/07 06:24:37;;;;;;;75.85;28.73;;;;;;;6.28;100.00;101554.97;4970592;28;20380;-77
2023/04/07 06:27:03;;;;;;;68.55;27.45;;;;;;;6.26;100.00;101560.13;4971063;28;20043;-77
2023/04/07 06:29:29;;;;;;;64.47;26.15;;;;;;;6.39;100.00;101576.59;4972739;28;20027;-77
2023/04/07 06:31:54;;;;;;;71.20;27.83;;;;;;;6.39;100.00;101568.84;4974778;28;20041;-77
2023/04/07 06:34:20;;;;;;;71.22;26.83;;;;;;;6.49;100.00;101582.69;4975668;28;20038;-77
2023/04/07 06:36:45;;;;;;;74.82;27.98;;;;;;;6.54;100.00;101581.00;4976508;28;20018;-77
2023/04/07 06:39:10;;;;;;;78.85;27.67;;;;;;;6.61;100.00;101577.59;4972401;28;20463;-77
2023/04/07 06:41:37;;;;;;;75.15;28.60;;;;;;;6.73;100.00;101584.53;4968478;28;20116;-77
2023/04/07 06:44:03;;;;;;;69.25;28.25;;;;;;;6.74;100.00;101586.28;4974706;28;20062;-78
2023/04/07 06:46:29;;;;;;;74.68;28.77;;;;;;;6.77;100.00;101584.56;4975267;28;20070;-78
2023/04/07 06:48:54;;;;;;;68.97;27.55;;;;;;;6.78;100.00;101585.44;4976404;28;20066;-77
2023/04/07 06:51:19;;;;;;;71.45;27.27;;;;;;;6.91;100.00;101587.19;4975852;28;20019;-78
2023/04/07 06:53:47;;;;;;;76.85;28.58;;;;;;;6.95;100.00;101588.94;4973360;28;20146;-78
2023/04/07 06:56:12;;;;;;;69.93;26.67;;;;;;;6.93;100.00;101584.59;4975113;28;20094;-77
2023/04/07 06:58:37;;;;;;;75.05;28.67;;;;;;;7.04;100.00;101590.69;4974798;28;20122;-77
2023/04/07 07:01:04;;;;;;;69.03;27.50;;;;;;;7.08;100.00;101595.03;4974556;28;20030;-78
2023/04/07 07:03:30;;;;;;;60.72;26.52;;;;;;;7.16;100.00;101602.81;4975857;28;20058;-78
2023/04/07 07:05:59;;;;;;;64.07;26.17;;;;;;;7.21;100.00;101596.78;4975030;28;20486;-77
2023/04/07 07:08:26;;;;;;;59.25;24.75;;;;;;;7.34;100.00;101607.19;4974305;28;20118;-77
2023/04/07 07:10:52;;;;;;;55.35;23.20;;;;;;;7.43;100.00;101602.91;4975335;28;20034;-79
2023/04/07 07:13:28;;;;;;;50.85;20.90;;;;;;;7.48;100.00;101606.34;4974810;28;20034;-78
2023/04/07 07:15:53;;;;;;;50.28;21.20;;;;;;;7.53;100.00;101606.38;4966190;28;20022;-77
2023/04/07 07:18:19;;;;;;;42.70;19.73;;;;;;;7.53;100.00;101608.09;4975220;28;20031;-77
2023/04/07 07:20:45;;;;;;;42.05;19.67;;;;;;;7.51;100.00;101601.16;4975902;28;20418;-78
2023/04/07 07:23:10;;;;;;;42.53;19.23;;;;;;;7.52;100.00;101612.44;4974465;28;20121;-78
2023/04/07 07:25:35;;;;;;;35.08;16.30;;;;;;;7.51;100.00;101610.69;4975039;28;20023;-75
2023/04/07 07:28:00;;;;;;;33.60;16.63;;;;;;;7.53;100.00;101600.31;4974831;28;20054;-78
2023/04/07 07:30:26;;;;;;;36.75;16.65;;;;;;;7.67;100.00;101604.66;4974529;28;20046;-78
2023/04/07 07:32:52;;;;;;;39.97;16.00;;;;;;;7.71;100.00;101610.69;4974838;28;20035;-78
2023/04/07 07:35:18;;;;;;;30.98;15.90;;;;;;;7.78;100.00;101619.34;4975212;28;20023;-78
2023/04/07 07:37:43;;;;;;;36.53;16.27;;;;;;;7.81;100.00;101622.81;4974544;28;20490;-78
2023/04/07 07:40:09;;;;;;;26.23;13.75;;;;;;;7.85;100.00;101628.91;4975025;28;20035;-78
2023/04/07 07:42:35;;;;;;;25.20;10.82;;;;;;;7.81;100.00;101625.41;4974770;28;20034;-78
2023/04/07 07:45:00;;;;;;;23.38;13.20;;;;;;;7.97;100.00;101631.47;4974086;28;20504;-78
2023/04/07 07:47:25;;;;;;;25.20;10.15;;;;;;;8.07;100.00;101632.34;4975091;28;20031;-78
2023/04/07 07:49:51;;;;;;;18.75;9.18;;;;;;;8.17;100.00;101639.25;4974345;28;20471;-78
2023/04/07 07:52:16;;;;;;;18.30;8.95;;;;;;;8.23;100.00;101634.06;4974137;28;20038;-78
2023/04/07 07:54:42;;;;;;;18.13;8.10;;;;;;;8.25;100.00;101644.47;4975248;28;20467;-77
2023/04/07 07:57:07;;;;;;;18.15;7.60;;;;;;;8.13;100.00;101643.59;4974086;28;20106;-78
2023/04/07 07:59:33;;;;;;;16.23;7.80;;;;;;;8.05;100.00;101640.16;4975019;28;20073;-78
2023/04/07 08:01:58;;;;;;;16.85;6.90;;;;;;;8.08;100.00;101636.69;4974846;28;20037;-78
2023/04/07 08:04:23;;;;;;;12.77;6.45;;;;;;;8.17;100.00;101650.53;4973668;28;20043;-78
2023/04/07 08:06:50;;;;;;;11.75;6.65;;;;;;;8.23;100.00;101646.19;4973177;28;20030;-77
2023/04/07 08:09:16;;;;;;;13.13;6.55;;;;;;;8.36;100.00;101650.50;4974367;28;20111;-78
2023/04/07 08:11:42;;;;;;;13.60;5.88;;;;;;;8.47;100.00;101656.59;4973848;28;20090;-77
2023/04/07 08:14:07;;;;;;;12.02;6.15;;;;;;;8.65;100.00;101651.34;4974488;28;20018;-77
2023/04/07 08:16:32;;;;;;;11.65;6.22;;;;;;;8.85;100.00;101656.47;4974645;28;20022;-77
2023/04/07 08:18:57;;;;;;;12.02;6.63;;;;;;;9.03;100.00;101655.56;4973796;28;20550;-77
2023/04/07 08:21:23;;;;;;;9.85;6.55;;;;;;;9.12;100.00;101660.72;4974235;28;20026;-77
2023/04/07 08:23:48;;;;;;;9.43;5.30;;;;;;;9.12;100.00;101657.22;4968861;28;20501;-77
2023/04/07 08:26:14;;;;;;;13.93;5.78;;;;;;;9.16;100.00;101660.72;4968771;28;20034;-77
2023/04/07 08:28:39;;;;;;;13.02;5.85;;;;;;;9.13;100.00;101669.38;4967637;28;20022;-77
2023/04/07 08:31:04;;;;;;;12.73;5.47;;;;;;;9.19;100.00;101671.06;4972401;28;20034;-77
2023/04/07 08:33:30;;;;;;;15.88;5.85;;;;;;;9.13;100.00;101670.25;4972288;28;20037;-77
2023/04/07 08:35:55;;;;;;;12.35;5.32;;;;;;;9.08;100.00;101666.78;4972406;28;20113;-77
2023/04/07 08:38:21;;;;;;;9.85;5.07;;;;;;;9.07;100.00;101678.06;4971900;28;20038;-77
2023/04/07 08:40:52;;;;;;;8.23;5.32;;;;;;;8.88;100.00;101682.47;4971215;28;20070;-77
2023/04/07 08:43:19;;;;;;;9.18;4.00;;;;;;;8.78;100.00;101688.56;4973226;28;20042;-77
2023/04/07 08:45:46;;;;;;;8.02;4.00;;;;;;;8.66;100.00;101686.88;4970070;28;20022;-77
2023/04/07 08:48:17;;;;;;;9.32;3.80;;;;;;;8.50;100.00;101668.69;4970083;28;20550;-77
2023/04/07 08:50:44;;;;;;;13.32;4.30;;;;;;;8.58;100.00;101687.75;4968646;28;20033;-77
2023/04/07 08:53:13;;;;;;;12.43;3.47;;;;;;;8.50;100.00;101695.56;4972021;28;20085;-77
2023/04/07 08:55:40;;;;;;;9.93;3.47;;;;;;;8.42;100.00;101695.56;4971980;28;20090;-77
2023/04/07 08:58:11;;;;;;;8.55;2.90;;;;;;;8.32;100.00;101695.53;4971266;28;20035;-77
2023/04/07 09:00:37;;;;;;;8.25;3.67;;;;;;;8.33;100.00;101708.53;4972657;28;20111;-77
2023/04/07 09:03:03;;;;;;;5.75;3.13;;;;;;;8.43;100.00;101694.69;4971683;28;20114;-77
2023/04/07 09:05:29;;;;;;;8.38;3.63;;;;;;;8.66;100.00;101697.28;4971109;28;20035;-77
2023/04/07 09:07:55;;;;;;;8.73;3.28;;;;;;;8.97;100.00;101701.53;4972500;28;20039;-77
2023/04/07 09:10:20;;;;;;;6.78;3.38;;;;;;;9.12;100.00;101694.53;4973179;28;20118;-77
2023/04/07 09:12:46;;;;;;;9.13;3.00;;;;;;;9.18;100.00;101696.22;4972322;28;20475;-77
2023/04/07 09:15:11;;;;;;;8.35;3.38;;;;;;;9.22;100.00;101697.09;4969363;28;20058;-77
2023/04/07 09:17:36;;;;;;;7.53;3.30;;;;;;;9.27;100.00;101700.53;4972278;28;20027;-77
2023/04/07 09:20:03;;;;;;;9.02;3.00;;;;;;;9.36;100.00;101706.56;4973109;28;20121;-76
2023/04/07 09:22:38;;;;;;;7.82;3.67;;;;;;;9.35;100.00;101701.34;4970323;28;20027;-76
2023/04/07 09:25:18;;;;;;;10.15;4.00;;;;;;;9.40;100.00;101703.97;4964055;28;20031;-76
2023/04/07 09:27:55;;;;;;;9.93;3.47;;;;;;;9.31;100.00;101710.06;4972330;28;20505;-77
2023/04/07 09:30:21;;;;;;;10.05;3.45;;;;;;;9.31;100.00;101712.66;4972241;28;20027;-77
2023/04/07 09:32:46;;;;;;;5.03;3.33;;;;;;;9.25;100.00;101708.34;4972805;28;20045;-77
2023/04/07 09:35:11;;;;;;;8.43;3.25;;;;;;;9.32;100.00;101709.22;4972445;28;20082;-77
2023/04/07 09:37:36;;;;;;;7.57;3.03;;;;;;;9.49;100.00;101707.38;4972660;28;20046;-78
2023/04/07 09:40:02;;;;;;;6.85;3.20;;;;;;;9.60;100.00;101709.91;4972696;28;20082;-77
2023/04/07 09:42:31;;;;;;;7.35;2.90;;;;;;;9.68;100.00;101700.34;4971607;28;20027;-77
2023/04/07 09:44:58;;;;;;;9.43;3.08;;;;;;;9.83;100.00;101702.81;4972873;28;20097;-79
2023/04/07 09:47:28;;;;;;;13.43;3.10;;;;;;;10.03;100.00;101699.22;4972367;28;20482;-77
2023/04/07 09:49:54;;;;;;;9.90;3.75;;;;;;;10.18;100.00;101706.06;4970859;28;20433;-77
2023/04/07 09:52:46;;;;;;;6.88;2.67;;;;;;;10.28;100.00;101703.38;4973092;28;20035;-76
2023/04/07 09:55:12;;;;;;;7.80;2.92;;;;;;;10.51;100.00;101692.75;4972174;28;20458;-78
2023/04/07 09:57:38;;;;;;;5.53;3.22;;;;;;;10.71;100.00;101699.53;4970843;28;20038;-77
2023/04/07 10:00:04;;;;;;;12.25;3.80;;;;;;;10.48;100.00;101699.75;4973007;28;20022;-77
2023/04/07 10:02:31;;;;;;;8.02;3.17;;;;;;;10.15;100.00;101703.47;4973200;28;20475;-77
2023/04/07 10:04:58;;;;;;;12.90;3.70;;;;;;;9.92;100.00;101712.31;4971868;28;20047;-77
2023/04/07 10:07:24;;;;;;;10.35;3.58;;;;;;;9.78;100.00;101709.81;4975435;28;20023;-78
2023/04/07 10:09:50;;;;;;;13.43;4.40;;;;;;;9.58;100.00;101712.53;4974197;28;20038;-77
2023/04/07 10:12:15;;;;;;;10.88;3.40;;;;;;;9.40;100.00;101719.56;4975179;28;20085;-77
2023/04/07 10:14:45;;;;;;;12.55;3.90;;;;;;;9.30;100.00;101714.41;4976178;28;20486;-77
2023/04/07 10:17:17;;;;;;;14.25;3.60;;;;;;;9.27;100.00;101721.34;4972655;28;20026;-77
2023/04/07 10:19:42;;;;;;;8.77;3.90;;;;;;;9.33;100.00;101718.72;4973845;28;20037;-77
2023/04/07 10:22:08;;;;;;;9.93;4.30;;;;;;;9.36;100.00;101731.75;4976162;28;20015;-76
2023/04/07 10:24:53;;;;;;;14.45;3.97;;;;;;;9.33;100.00;101731.75;4975534;28;20043;-77
2023/04/07 10:27:28;;;;;;;38.22;6.47;;;;;;;9.20;100.00;101735.28;4975745;28;20479;-77
2023/04/07 10:29:56;;;;;;;10.82;3.28;;;;;;;9.10;100.00;101740.50;4975512;28;20144;-76
2023/04/07 10:32:22;;;;;;;13.45;4.13;;;;;;;9.03;100.00;101744.00;4976895;28;20035;-76
2023/04/07 10:34:52;;;;;;;15.88;3.65;;;;;;;9.20;100.00;101740.47;4973659;28;20033;-76
2023/04/07 10:37:20;;;;;;;12.07;5.10;;;;;;;9.38;100.00;101743.88;4983803;28;20746;-77
2023/04/07 10:39:45;;;;;;;7.82;3.50;;;;;;;9.65;100.00;101743.75;4971643;28;20029;-76
2023/04/07 10:42:39;;;;;;;7.70;3.55;;;;;;;9.94;100.00;101740.94;4973533;28;20035;-76
2023/04/07 10:45:06;;;;;;;11.63;3.28;;;;;;;10.13;100.00;101745.16;4974550;28;20034;-76
2023/04/07 10:47:32;;;;;;;8.30;3.33;;;;;;;10.30;100.00;101745.09;4975784;28;20038;-76
2023/04/07 10:50:17;;;;;;;10.98;3.53;;;;;;;10.38;100.00;101748.50;4976392;28;20066;-78
2023/04/07 10:52:44;;;;;;;12.48;3.20;;;;;;;10.36;100.00;101752.84;4974472;28;20034;-79
2023/04/07 10:55:43;;;;;;;8.73;2.65;;;;;;;10.19;100.00;101752.09;4976051;28;20101;-81
2023/04/07 10:58:22;;;;;;;11.95;3.35;;;;;;;9.93;100.00;101754.88;4975407;28;20023;-81
2023/04/07 11:01:02;;;;;;;10.40;3.70;;;;;;;9.85;100.00;101760.13;4974911;28;20487;-76
2023/04/07 11:03:30;;;;;;;25.52;3.90;;;;;;;9.78;100.00;101758.44;4973656;28;20035;-77
2023/04/07 11:06:07;;;;;;;16.38;4.97;;;;;;;9.89;100.00;101759.22;4975709;28;20499;-76
2023/04/07 11:08:46;;;;;;;13.15;3.42;;;;;;;10.06;100.00;101754.75;4974590;28;20023;-76
2023/04/07 11:11:14;;;;;;;8.23;3.20;;;;;;;10.23;100.00;101749.44;4972935;28;20041;-77